Time;durP1;ratioP1;P1;durP2;ratioP2;P2;SDS_P1;SDS_P2;PMS_P1;PMS_P2;Temp;Humidity;BMP_temperature;BMP_pressure;BME280_temperature;BME280_humidity;BME280_pressure;Samples;Min_cycle;Max_cycle;Signal;HPM_P1;HPM_P2
2022/03/24 00:02:03;;;;;;;111.45;60.33;;;;;;;1.70;53.85;101528.83;1787635;80;20903;-73
2022/03/24 00:04:30;;;;;;;114.10;58.70;;;;;;;1.75;53.61;101536.95;1786497;80;20943;-73
2022/03/24 00:06:57;;;;;;;107.85;60.65;;;;;;;1.79;54.12;101529.59;1786796;80;20971;-73
2022/03/24 00:09:24;;;;;;;97.05;55.17;;;;;;;1.84;54.74;101529.11;1786506;80;20875;-73
2022/03/24 00:11:55;;;;;;;100.55;52.65;;;;;;;1.84;55.06;101521.34;1786567;80;22078;-73
2022/03/24 00:15:09;;;;;;;94.35;54.53;;;;;;;1.90;55.06;101507.95;1816473;79;22580;-72
2022/03/24 00:17:36;;;;;;;94.70;49.40;;;;;;;1.86;55.22;101515.73;1789702;80;21425;-73
2022/03/24 00:20:04;;;;;;;88.70;49.60;;;;;;;1.88;54.63;101510.55;1789561;80;21892;-73
2022/03/24 00:22:32;;;;;;;91.22;47.70;;;;;;;1.92;53.62;101507.51;1789435;80;20990;-72
2022/03/24 00:24:59;;;;;;;88.50;48.60;;;;;;;1.98;54.54;101500.95;1789626;80;20939;-73
2022/03/24 00:27:28;;;;;;;82.47;46.83;;;;;;;2.04;55.08;101496.58;1789514;80;20911;-72
2022/03/24 00:29:57;;;;;;;84.37;46.50;;;;;;;2.09;54.89;101499.14;1789567;80;20971;-73
2022/03/24 00:32:25;;;;;;;92.45;48.28;;;;;;;2.13;55.14;101496.06;1789450;80;21155;-72
2022/03/24 00:34:52;;;;;;;87.80;47.08;;;;;;;2.15;55.17;101491.29;1789334;80;20986;-73
2022/03/24 00:37:19;;;;;;;77.27;44.60;;;;;;;2.13;55.32;101487.86;1790270;80;20892;-73
2022/03/24 00:39:48;;;;;;;79.37;45.35;;;;;;;2.12;54.92;101484.02;1790387;80;20903;-73
2022/03/24 00:42:19;;;;;;;90.03;47.23;;;;;;;2.08;55.18;101476.27;1789499;80;20892;-73
2022/03/24 00:44:47;;;;;;;78.55;45.73;;;;;;;2.08;55.40;101476.27;1789448;80;21674;-74
2022/03/24 00:47:15;;;;;;;82.75;42.98;;;;;;;2.05;54.78;101472.44;1789435;80;20891;-74
2022/03/24 00:49:43;;;;;;;74.32;42.17;;;;;;;2.06;54.77;101464.23;1789415;80;20946;-73
2022/03/24 00:52:11;;;;;;;76.67;42.83;;;;;;;2.08;54.90;101466.37;1789653;80;20892;-73
2022/03/24 00:54:38;;;;;;;68.57;37.65;;;;;;;2.09;55.35;101468.09;1789486;80;20935;-73
2022/03/24 00:57:06;;;;;;;73.12;40.55;;;;;;;2.10;54.25;101461.19;1789494;80;21092;-72
2022/03/24 00:59:34;;;;;;;63.92;36.05;;;;;;;2.11;54.83;101459.85;1789624;80;21445;-73
2022/03/24 01:02:05;;;;;;;69.97;40.00;;;;;;;2.11;54.14;101456.42;1789370;80;21449;-74
2022/03/24 01:04:32;;;;;;;62.73;34.60;;;;;;;2.12;54.09;101455.12;1789363;80;20987;-73
2022/03/24 01:07:03;;;;;;;54.40;30.60;;;;;;;2.13;54.81;101450.79;1789565;80;20951;-73
2022/03/24 01:09:31;;;;;;;54.45;31.35;;;;;;;2.13;52.73;101452.08;1789397;80;21529;-72
2022/03/24 01:11:58;;;;;;;41.83;25.27;;;;;;;2.15;52.22;101448.60;1789432;80;20891;-73
2022/03/24 01:14:27;;;;;;;36.93;21.80;;;;;;;2.18;49.87;101436.06;1785475;80;20889;-73
2022/03/24 01:16:54;;;;;;;38.10;24.23;;;;;;;2.22;48.37;101436.45;1784355;80;20940;-72
2022/03/24 01:19:21;;;;;;;33.55;20.32;;;;;;;2.27;48.55;101435.97;1784516;79;20986;-72
2022/03/24 01:21:48;;;;;;;38.92;24.15;;;;;;;2.32;47.15;101432.03;1784441;80;21148;-72
2022/03/24 01:24:18;;;;;;;33.15;21.62;;;;;;;2.36;46.77;101428.53;1784661;80;20869;-73
2022/03/24 01:26:45;;;;;;;29.77;17.77;;;;;;;2.40;45.46;101425.88;1783965;80;20924;-72
2022/03/24 01:29:13;;;;;;;32.15;18.42;;;;;;;2.45;44.75;101425.81;1783788;80;20932;-74
2022/03/24 01:31:42;;;;;;;41.10;19.37;;;;;;;2.49;44.39;101424.46;1784235;80;21006;-73
2022/03/24 01:34:09;;;;;;;34.18;18.57;;;;;;;2.56;43.65;101426.97;1783887;80;21197;-73
2022/03/24 01:36:38;;;;;;;26.15;16.52;;;;;;;2.59;43.35;101419.15;1783966;80;21409;-74
2022/03/24 01:39:08;;;;;;;27.48;15.65;;;;;;;2.64;42.68;101416.05;1784426;80;20904;-74
2022/03/24 01:41:38;;;;;;;30.37;16.00;;;;;;;2.66;42.13;101413.00;1783958;80;20931;-74
2022/03/24 01:44:12;;;;;;;20.77;14.33;;;;;;;2.69;42.12;101413.82;1783885;80;21443;-73
2022/03/24 01:47:00;;;;;;;27.17;14.58;;;;;;;2.73;41.68;101407.29;1783879;80;21402;-73
2022/03/24 01:49:30;;;;;;;23.02;14.20;;;;;;;2.76;41.75;101399.05;1784094;80;20884;-73
2022/03/24 01:51:57;;;;;;;20.77;14.00;;;;;;;2.78;41.67;101397.70;1783872;80;20927;-73
2022/03/24 01:54:27;;;;;;;21.30;13.68;;;;;;;2.80;41.19;101398.55;1783789;80;20936;-73
2022/03/24 01:56:55;;;;;;;24.50;15.10;;;;;;;2.82;40.91;101391.61;1784013;80;20963;-72
2022/03/24 01:59:22;;;;;;;25.65;16.23;;;;;;;2.84;41.03;101393.73;1783942;80;21128;-72
2022/03/24 02:01:49;;;;;;;33.60;18.07;;;;;;;2.86;41.31;101390.69;1783841;80;20931;-72
2022/03/24 02:04:17;;;;;;;32.98;19.30;;;;;;;2.88;42.55;101390.22;1783848;80;21342;-73
2022/03/24 02:06:45;;;;;;;43.85;25.92;;;;;;;2.88;43.68;101389.78;1784005;80;20951;-72
2022/03/24 02:09:15;;;;;;;34.78;20.68;;;;;;;2.89;43.91;101388.03;1783944;80;20931;-72
2022/03/24 02:11:43;;;;;;;61.33;32.25;;;;;;;2.88;44.45;101385.89;1784165;79;21281;-73
2022/03/24 02:14:12;;;;;;;57.33;33.70;;;;;;;2.86;45.36;101391.53;1783646;80;21444;-72
2022/03/24 02:16:41;;;;;;;41.75;23.62;;;;;;;2.81;46.80;101382.98;1783544;80;20888;-72
2022/03/24 02:19:13;;;;;;;40.88;26.55;;;;;;;2.78;46.77;101379.58;1783600;80;21390;-72
2022/03/24 02:21:41;;;;;;;32.80;19.25;;;;;;;2.76;45.61;101386.52;1783581;80;20896;-73
2022/03/24 02:24:12;;;;;;;52.15;30.15;;;;;;;2.73;45.39;101377.06;1783671;80;20908;-72
2022/03/24 02:26:42;;;;;;;52.95;28.67;;;;;;;2.71;47.81;101378.81;1783735;80;21319;-72
2022/03/24 02:29:11;;;;;;;55.98;32.75;;;;;;;2.70;47.58;101381.86;1783486;80;20852;-76
2022/03/24 02:31:42;;;;;;;31.87;18.10;;;;;;;2.70;49.34;101379.71;1783578;80;21031;-72
2022/03/24 02:36:58;;;;;;;25.25;16.40;;;;;;;2.62;46.22;101375.08;1783633;80;21164;-73
2022/03/24 02:39:25;;;;;;;56.50;27.87;;;;;;;2.62;44.38;101381.13;1783445;80;20927;-72
2022/03/24 02:41:54;;;;;;;25.92;15.08;;;;;;;2.66;44.73;101378.04;1783727;80;20939;-73
2022/03/24 02:44:23;;;;;;;26.93;15.88;;;;;;;2.67;42.84;101376.73;1783489;80;20935;-73
2022/03/24 02:46:51;;;;;;;32.20;17.80;;;;;;;2.72;41.23;101374.52;1783521;80;20937;-73
2022/03/24 02:49:24;;;;;;;33.58;19.65;;;;;;;2.77;41.91;101372.70;1783778;80;21239;-74
2022/03/24 02:51:54;;;;;;;39.73;22.93;;;;;;;2.82;43.03;101372.18;1783658;80;21002;-72
2022/03/24 02:54:21;;;;;;;30.17;18.50;;;;;;;2.83;43.75;101368.28;1783198;80;21512;-72
2022/03/24 02:56:48;;;;;;;26.52;17.07;;;;;;;2.81;43.99;101366.16;1783820;80;20899;-73
2022/03/24 02:59:16;;;;;;;35.83;20.10;;;;;;;2.78;43.29;101355.86;1783644;80;20982;-72
2022/03/24 03:01:56;;;;;;;34.73;20.82;;;;;;;2.80;42.97;101359.28;1783513;80;21147;-73
2022/03/24 03:04:23;;;;;;;36.75;22.77;;;;;;;2.80;41.40;101354.52;1783663;80;20936;-72
2022/03/24 03:06:54;;;;;;;34.75;20.50;;;;;;;2.83;42.50;101354.03;1783612;80;21489;-73
2022/03/24 03:09:22;;;;;;;33.73;19.48;;;;;;;2.81;40.81;101345.44;1783596;80;20963;-72
2022/03/24 03:11:51;;;;;;;36.15;21.42;;;;;;;2.84;40.32;101353.59;1783524;80;20865;-72
2022/03/24 03:14:20;;;;;;;41.18;25.57;;;;;;;2.86;40.93;101354.42;1783535;80;21160;-72
2022/03/24 03:16:48;;;;;;;35.33;22.17;;;;;;;2.85;41.99;101349.69;1783526;80;20872;-74
2022/03/24 03:19:19;;;;;;;46.63;24.98;;;;;;;2.82;42.57;101351.02;1783602;80;20916;-71
2022/03/24 03:21:50;;;;;;;44.08;25.52;;;;;;;2.78;42.06;101347.20;1783570;80;20916;-73
2022/03/24 03:24:18;;;;;;;38.53;23.42;;;;;;;2.73;42.17;101345.98;1783712;80;20868;-74
2022/03/24 03:26:46;;;;;;;41.68;22.02;;;;;;;2.70;42.03;101341.72;1783484;80;21803;-73
2022/03/24 03:29:13;;;;;;;37.38;21.77;;;;;;;2.67;41.56;101343.06;1783406;80;20960;-73
2022/03/24 03:31:40;;;;;;;37.03;23.07;;;;;;;2.62;41.49;101335.83;1783820;80;20888;-73
2022/03/24 03:34:08;;;;;;;38.28;22.02;;;;;;;2.57;41.59;101327.25;1783501;80;21353;-72
2022/03/24 03:36:35;;;;;;;31.07;19.87;;;;;;;2.54;42.25;101334.23;1783482;80;20932;-72
2022/03/24 03:39:03;;;;;;;31.70;20.50;;;;;;;2.53;41.79;101332.50;1783432;80;21243;-73
2022/03/24 03:41:30;;;;;;;31.17;19.42;;;;;;;2.49;40.98;101331.27;1783447;80;21406;-72
2022/03/24 03:43:59;;;;;;;36.35;22.85;;;;;;;2.48;40.69;101323.06;1783394;80;20932;-73
2022/03/24 03:46:26;;;;;;;40.25;22.90;;;;;;;2.53;40.32;101331.20;1783545;80;20951;-73
2022/03/24 03:48:53;;;;;;;38.25;21.97;;;;;;;2.56;40.03;101326.00;1783577;80;20994;-74
2022/03/24 03:51:22;;;;;;;49.98;25.20;;;;;;;2.61;39.74;101327.63;1783501;80;21496;-73
2022/03/24 03:53:50;;;;;;;41.18;26.45;;;;;;;2.68;39.38;101324.50;1783370;80;20884;-74
2022/03/24 03:56:17;;;;;;;36.05;23.95;;;;;;;2.74;39.50;101318.37;1783526;80;20920;-73
2022/03/24 03:58:43;;;;;;;34.73;22.07;;;;;;;2.80;39.48;101319.13;1783514;80;20982;-73
2022/03/24 04:01:12;;;;;;;32.58;21.17;;;;;;;2.86;38.95;101317.71;1783589;80;20970;-74
2022/03/24 04:03:39;;;;;;;38.67;23.47;;;;;;;2.90;39.38;101314.19;1783409;80;21130;-73
2022/03/24 04:06:11;;;;;;;41.10;23.10;;;;;;;2.94;39.20;101308.98;1783434;80;20958;-73
2022/03/24 04:08:42;;;;;;;40.20;23.98;;;;;;;2.98;39.74;101315.37;1783699;80;20927;-73
2022/03/24 04:11:09;;;;;;;52.05;26.23;;;;;;;3.02;39.75;101317.45;1783382;80;20947;-73
2022/03/24 04:13:38;;;;;;;55.10;25.02;;;;;;;3.02;40.90;101320.04;1783440;80;20927;-73
2022/03/24 04:16:06;;;;;;;43.98;26.15;;;;;;;3.02;40.96;101317.00;1776505;80;21420;-73
2022/03/24 04:18:34;;;;;;;43.65;24.92;;;;;;;3.05;40.73;101314.83;1775084;80;20960;-74
2022/03/24 04:21:02;;;;;;;38.10;24.25;;;;;;;3.12;40.98;101320.30;1775227;80;20980;-73
2022/03/24 04:23:29;;;;;;;44.20;24.80;;;;;;;3.22;40.76;101319.23;1775121;80;20896;-74
2022/03/24 04:25:56;;;;;;;41.45;24.15;;;;;;;3.35;40.47;101320.32;1775130;80;21255;-74
2022/03/24 04:28:23;;;;;;;41.88;24.40;;;;;;;3.43;39.63;101319.75;1775345;80;21790;-74
2022/03/24 04:30:50;;;;;;;45.12;24.18;;;;;;;3.49;39.45;101317.89;1775593;80;20927;-74
2022/03/24 04:33:18;;;;;;;43.60;25.35;;;;;;;3.61;39.33;101318.53;1775182;80;20992;-73
2022/03/24 04:35:46;;;;;;;49.58;25.40;;;;;;;3.76;39.65;101318.64;1775215;80;21438;-74
2022/03/24 04:38:14;;;;;;;38.60;23.65;;;;;;;3.90;39.79;101319.23;1775700;80;20928;-74
2022/03/24 04:40:41;;;;;;;45.48;24.77;;;;;;;4.05;39.33;101324.09;1776014;80;21398;-75
2022/03/24 04:43:08;;;;;;;43.87;25.95;;;;;;;4.21;38.85;101323.31;1775203;80;20849;-74
2022/03/24 04:45:36;;;;;;;47.35;28.27;;;;;;;4.38;38.36;101316.87;1775158;80;20920;-74
2022/03/24 04:48:04;;;;;;;47.43;26.23;;;;;;;4.54;37.59;101313.89;1775201;80;20983;-75
2022/03/24 04:50:31;;;;;;;46.23;27.00;;;;;;;4.75;37.24;101312.50;1775301;80;21486;-74
2022/03/24 04:52:58;;;;;;;45.23;28.67;;;;;;;4.99;36.93;101312.34;1774604;80;21222;-74
2022/03/24 04:55:26;;;;;;;45.48;25.25;;;;;;;5.24;36.54;101312.99;1774843;80;20925;-75
2022/03/24 04:57:52;;;;;;;44.40;24.37;;;;;;;5.49;36.12;101308.42;1775308;80;20952;-74
2022/03/24 05:00:20;;;;;;;51.42;31.80;;;;;;;5.76;35.81;101308.96;1775206;80;21003;-76
2022/03/24 05:02:47;;;;;;;50.23;27.98;;;;;;;6.14;35.52;101304.85;1775466;80;20924;-75
2022/03/24 05:05:19;;;;;;;45.17;30.15;;;;;;;6.60;34.54;101304.27;1775843;80;21144;-74
2022/03/24 05:07:43;;;;;;;47.90;28.62;;;;;;;7.09;33.93;101304.34;1774488;80;21528;-74
2022/03/24 05:10:11;;;;;;;39.45;27.35;;;;;;;7.60;33.44;101301.25;1775061;80;20900;-74
2022/03/24 05:12:40;;;;;;;41.20;23.65;;;;;;;8.10;32.71;101298.51;1775506;80;20869;-74
2022/03/24 05:15:10;;;;;;;44.40;24.60;;;;;;;8.63;32.15;101301.24;1777958;80;20841;-75
2022/03/24 05:17:38;;;;;;;37.65;23.85;;;;;;;9.11;31.37;101296.16;1783833;80;21198;-75
2022/03/24 05:20:07;;;;;;;37.98;22.67;;;;;;;9.53;30.42;101296.50;1783932;80;20920;-75
2022/03/24 05:22:36;;;;;;;30.62;21.17;;;;;;;9.88;29.92;101290.97;1783853;80;20955;-75
2022/03/24 05:25:05;;;;;;;40.48;25.02;;;;;;;10.33;29.21;101290.22;1783859;80;20888;-74
2022/03/24 05:27:33;;;;;;;37.13;23.95;;;;;;;10.63;28.64;101293.56;1783809;80;20995;-75
2022/03/24 05:30:03;;;;;;;33.35;22.25;;;;;;;10.79;28.32;101288.80;1783840;80;21877;-74
2022/03/24 05:32:30;;;;;;;38.58;24.57;;;;;;;10.98;28.28;101285.23;1783745;80;20840;-74
2022/03/24 05:35:00;;;;;;;39.13;23.95;;;;;;;11.27;28.00;101287.70;1783956;80;21437;-75
2022/03/24 05:37:27;;;;;;;37.88;23.32;;;;;;;11.59;27.65;101286.45;1784270;79;20944;-74
2022/03/24 05:39:54;;;;;;;30.68;21.60;;;;;;;11.89;27.21;101286.59;1784001;80;20924;-74
2022/03/24 05:42:21;;;;;;;35.30;21.12;;;;;;;12.27;27.35;101288.86;1783847;80;21112;-75
2022/03/24 05:44:49;;;;;;;34.48;21.80;;;;;;;12.77;26.53;101286.44;1783809;80;20923;-74
2022/03/24 05:47:17;;;;;;;32.28;22.05;;;;;;;13.14;25.68;101279.45;1783749;80;20892;-75
2022/03/24 05:49:44;;;;;;;34.65;21.68;;;;;;;13.73;25.36;101266.22;1783834;80;20932;-75
2022/03/24 05:52:31;;;;;;;37.03;19.92;;;;;;;13.73;25.36;101266.22;1783927;80;20920;-74
2022/03/24 05:54:58;;;;;;;27.20;20.12;;;;;;;14.29;25.06;101274.47;1783895;80;21104;-74
2022/03/24 05:57:26;;;;;;;34.88;23.57;;;;;;;14.74;25.06;101268.92;1783840;80;20845;-75
2022/03/24 05:59:53;;;;;;;29.42;18.37;;;;;;;15.23;24.65;101269.53;1783914;80;20914;-74
2022/03/24 06:02:21;;;;;;;29.72;18.12;;;;;;;15.73;24.27;101265.15;1784198;80;21577;-74
2022/03/24 06:04:48;;;;;;;24.72;18.62;;;;;;;16.20;23.93;101264.47;1784641;80;20963;-76
2022/03/24 06:07:17;;;;;;;26.70;17.25;;;;;;;16.62;23.53;101265.73;1784082;80;21132;-75
2022/03/24 06:09:45;;;;;;;23.00;14.25;;;;;;;17.02;23.04;101263.22;1783714;80;20971;-74
2022/03/24 06:12:13;;;;;;;22.77;13.22;;;;;;;17.31;21.90;101259.63;1784160;80;20888;-74
2022/03/24 06:14:41;;;;;;;17.98;11.03;;;;;;;17.64;21.31;101255.28;1783841;80;20868;-75
2022/03/24 06:17:09;;;;;;;24.92;10.68;;;;;;;18.02;20.62;101258.36;1749839;80;20888;-73
2022/03/24 06:19:38;;;;;;;14.63;9.73;;;;;;;18.13;19.44;101249.53;1749868;82;21269;-75
2022/03/24 06:22:05;;;;;;;17.77;9.90;;;;;;;18.05;19.16;101250.63;1749831;82;20919;-75
2022/03/24 06:24:32;;;;;;;14.07;10.00;;;;;;;17.95;19.32;101249.71;1749837;82;21049;-76
2022/03/24 06:26:59;;;;;;;14.40;9.85;;;;;;;17.92;19.22;101256.12;1750115;82;21465;-77
2022/03/24 06:29:26;;;;;;;21.33;10.03;;;;;;;17.99;19.20;101239.21;1749866;80;21452;-75
2022/03/24 06:31:55;;;;;;;30.25;15.63;;;;;;;18.04;18.98;101241.00;1749935;80;20920;-75
2022/03/24 06:34:22;;;;;;;23.22;15.78;;;;;;;18.03;18.92;101238.00;1750109;82;21035;-76
2022/03/24 06:36:50;;;;;;;13.75;10.75;;;;;;;17.86;18.74;101244.66;1750030;82;20924;-74
2022/03/24 06:39:17;;;;;;;18.50;11.75;;;;;;;17.70;19.22;101236.23;1749786;82;20864;-75
2022/03/24 06:41:46;;;;;;;16.25;10.68;;;;;;;17.75;19.15;101242.00;1749881;82;20947;-75
2022/03/24 06:44:13;;;;;;;16.55;9.93;;;;;;;17.83;19.10;101239.61;1749792;82;21147;-76
2022/03/24 06:46:40;;;;;;;16.40;10.48;;;;;;;17.89;19.10;101238.27;1749941;82;20900;-75
2022/03/24 06:49:07;;;;;;;13.53;8.45;;;;;;;18.13;19.06;101230.11;1749909;82;20884;-74
2022/03/24 06:51:35;;;;;;;13.62;8.45;;;;;;;18.28;18.53;101231.50;1749822;82;21129;-77
2022/03/24 06:54:03;;;;;;;10.58;7.17;;;;;;;18.36;18.14;101225.08;1749914;82;20943;-76
2022/03/24 06:56:31;;;;;;;12.13;7.62;;;;;;;18.49;18.09;101230.68;1749953;81;21159;-77
2022/03/24 06:58:58;;;;;;;10.58;7.62;;;;;;;18.56;17.59;101232.67;1749843;82;20856;-76
2022/03/24 07:01:26;;;;;;;13.45;6.60;;;;;;;18.52;17.63;101232.61;1749912;82;20920;-77
2022/03/24 07:03:53;;;;;;;11.10;6.22;;;;;;;18.52;17.34;101239.70;1749770;82;21422;-77
2022/03/24 07:06:21;;;;;;;8.60;6.28;;;;;;;18.47;17.06;101228.63;1749951;82;20841;-77
2022/03/24 07:08:48;;;;;;;9.38;5.70;;;;;;;18.44;17.52;101229.73;1749917;82;21851;-76
2022/03/24 07:11:16;;;;;;;11.05;6.03;;;;;;;18.62;17.25;101223.36;1750092;82;20892;-76
2022/03/24 07:13:43;;;;;;;16.55;6.05;;;;;;;18.64;17.08;101220.09;1749782;81;20947;-75
2022/03/24 07:16:10;;;;;;;30.30;21.23;;;;;;;18.75;17.19;101218.70;1762226;80;21493;-77
2022/03/24 07:18:38;;;;;;;17.98;13.83;;;;;;;18.94;17.24;101218.02;1775385;80;21074;-76
2022/03/24 07:21:07;;;;;;;18.65;8.23;;;;;;;19.05;17.33;101215.27;1775337;80;21358;-78
2022/03/24 07:23:34;;;;;;;8.53;6.50;;;;;;;19.18;17.41;101223.49;1775410;80;20971;-76
2022/03/24 07:26:03;;;;;;;12.68;6.42;;;;;;;19.27;17.21;101220.03;1775194;80;20923;-77
2022/03/24 07:28:30;;;;;;;12.18;6.70;;;;;;;19.44;17.21;101204.77;1775192;80;20970;-76
2022/03/24 07:31:00;;;;;;;17.85;6.53;;;;;;;19.79;17.03;101221.29;1775365;80;20916;-76
2022/03/24 07:33:27;;;;;;;18.50;7.40;;;;;;;19.98;16.59;101206.65;1752165;80;21647;-77
2022/03/24 07:35:55;;;;;;;9.98;6.22;;;;;;;20.06;16.74;101215.29;1775221;80;20996;-75
2022/03/24 07:38:22;;;;;;;13.10;7.42;;;;;;;20.24;16.54;101208.77;1728486;80;20976;-76
2022/03/24 07:40:49;;;;;;;13.28;7.65;;;;;;;20.24;16.43;101210.11;1775133;80;20868;-75
2022/03/24 07:43:16;;;;;;;12.80;6.33;;;;;;;20.33;16.54;101207.92;1775285;80;20995;-77
2022/03/24 07:45:43;;;;;;;10.98;6.08;;;;;;;20.53;16.73;101198.09;1775128;80;21457;-75
2022/03/24 07:48:16;;;;;;;7.40;5.78;;;;;;;20.74;16.25;101197.09;1775493;80;20878;-75
2022/03/24 07:50:46;;;;;;;12.23;5.87;;;;;;;20.96;16.32;101186.07;1775089;80;20894;-75
2022/03/24 07:53:25;;;;;;;7.42;5.08;;;;;;;21.22;16.27;101186.75;1775806;80;20975;-76
2022/03/24 07:55:52;;;;;;;6.15;4.15;;;;;;;21.46;16.15;101186.25;1775790;80;20975;-77
2022/03/24 07:58:21;;;;;;;6.30;5.22;;;;;;;21.50;15.74;101174.29;1775345;80;21280;-76
2022/03/24 08:00:49;;;;;;;10.75;4.72;;;;;;;21.52;15.51;101170.47;1775621;80;21335;-76
2022/03/24 08:03:19;;;;;;;5.47;4.58;;;;;;;21.67;15.62;101164.61;1775154;80;20961;-75
2022/03/24 08:05:48;;;;;;;12.47;5.55;;;;;;;21.78;15.51;101160.38;1775281;80;20900;-75
2022/03/24 08:08:16;;;;;;;10.68;5.45;;;;;;;21.88;15.63;101161.16;1775218;80;20943;-76
2022/03/24 08:10:47;;;;;;;14.70;6.05;;;;;;;22.14;15.18;101152.34;1775183;80;20931;-75
2022/03/24 08:13:15;;;;;;;6.90;4.20;;;;;;;22.35;14.77;101153.39;1775161;80;20926;-76
2022/03/24 08:15:42;;;;;;;5.22;4.10;;;;;;;22.52;14.89;101147.17;1775417;80;20984;-76
2022/03/24 08:18:10;;;;;;;6.08;4.20;;;;;;;22.78;14.65;101145.47;1775226;80;20928;-77
2022/03/24 08:20:38;;;;;;;8.35;4.70;;;;;;;22.85;14.25;101147.84;1775380;80;20869;-76
2022/03/24 08:23:06;;;;;;;13.22;5.42;;;;;;;22.94;14.41;101145.54;1775457;80;21111;-76
2022/03/24 08:25:33;;;;;;;12.73;6.42;;;;;;;22.90;13.79;101135.68;1775171;80;20977;-75
2022/03/24 08:28:00;;;;;;;7.90;5.03;;;;;;;22.90;13.94;101137.02;1775219;80;20861;-75
2022/03/24 08:30:27;;;;;;;9.20;5.15;;;;;;;22.82;13.99;101126.78;1775199;80;21065;-78
2022/03/24 08:32:54;;;;;;;8.13;5.17;;;;;;;22.73;14.12;101128.56;1775142;80;20975;-77
2022/03/24 08:35:21;;;;;;;8.58;5.30;;;;;;;22.75;14.04;101120.72;1775289;80;21145;-78
2022/03/24 08:37:48;;;;;;;14.63;4.92;;;;;;;22.91;14.36;101105.75;1775603;80;20916;-77
2022/03/24 08:40:17;;;;;;;6.40;4.92;;;;;;;22.99;13.97;101108.47;1775349;80;20884;-77
2022/03/24 08:42:44;;;;;;;7.55;6.35;;;;;;;23.08;14.20;101106.19;1775351;80;20904;-75
2022/03/24 08:45:13;;;;;;;12.05;5.78;;;;;;;23.20;14.04;101107.23;1775385;80;20837;-77
2022/03/24 08:47:40;;;;;;;7.90;5.65;;;;;;;23.20;13.96;101104.05;1775605;80;21398;-75
2022/03/24 08:50:10;;;;;;;6.03;5.35;;;;;;;23.23;13.66;101103.70;1776157;80;20908;-77
2022/03/24 08:52:37;;;;;;;13.32;5.40;;;;;;;23.29;13.80;101100.38;1775629;80;21386;-77
2022/03/24 08:55:07;;;;;;;10.00;6.17;;;;;;;23.36;13.71;101101.39;1775302;80;20991;-76
2022/03/24 08:57:36;;;;;;;9.83;6.15;;;;;;;23.55;13.66;101093.58;1775337;80;20917;-76
2022/03/24 09:00:13;;;;;;;12.50;6.58;;;;;;;23.78;13.49;101092.45;1775576;80;21985;-77
2022/03/24 09:02:45;;;;;;;15.85;6.65;;;;;;;23.76;13.00;101089.09;1775310;80;21513;-76
2022/03/24 09:05:19;;;;;;;10.55;5.53;;;;;;;23.59;13.27;101088.74;1775335;80;21436;-76
2022/03/24 09:07:46;;;;;;;10.38;6.90;;;;;;;23.44;13.24;101075.16;1775379;80;21449;-76
2022/03/24 09:10:15;;;;;;;11.53;5.08;;;;;;;23.41;13.40;101085.34;1775368;80;21076;-76
2022/03/24 09:12:45;;;;;;;8.83;6.05;;;;;;;23.38;13.64;101071.80;1775343;80;21510;-75
2022/03/24 09:15:14;;;;;;;12.03;6.35;;;;;;;23.40;13.46;101074.32;1775272;80;20935;-75
2022/03/24 09:17:42;;;;;;;13.03;5.78;;;;;;;23.46;13.54;101075.84;1775220;80;20999;-77
2022/03/24 09:20:13;;;;;;;10.60;5.62;;;;;;;23.48;13.35;101067.66;1775224;80;21017;-76
2022/03/24 09:22:43;;;;;;;6.47;5.30;;;;;;;23.44;13.48;101067.13;1775359;80;20935;-77
2022/03/24 09:25:12;;;;;;;5.67;4.42;;;;;;;23.42;13.36;101065.62;1775524;80;21205;-77
2022/03/24 09:27:42;;;;;;;6.95;5.53;;;;;;;23.36;13.56;101054.55;1775287;80;21354;-76
2022/03/24 09:30:12;;;;;;;7.95;4.75;;;;;;;23.32;13.75;101051.90;1775335;80;20869;-77
2022/03/24 09:32:38;;;;;;;7.10;5.78;;;;;;;23.49;13.95;101048.72;1775227;80;20940;-78
2022/03/24 09:35:06;;;;;;;7.50;4.95;;;;;;;23.75;13.58;101039.73;1775359;80;20882;-79
2022/03/24 09:37:34;;;;;;;18.02;13.45;;;;;;;23.89;13.82;101040.38;1775316;80;21307;-77
2022/03/24 09:40:02;;;;;;;12.23;6.78;;;;;;;23.98;13.25;101039.88;1775289;80;20925;-77
2022/03/24 09:42:30;;;;;;;7.03;5.53;;;;;;;23.99;13.58;101037.03;1775272;80;20841;-76
2022/03/24 09:45:04;;;;;;;10.13;6.17;;;;;;;24.23;13.06;101035.30;1775285;80;21387;-77
2022/03/24 09:47:29;;;;;;;8.05;5.22;;;;;;;24.28;13.38;101032.09;1774667;80;21359;-77
2022/03/24 09:49:56;;;;;;;16.87;7.67;;;;;;;24.46;13.32;101027.37;1775343;80;21541;-76
2022/03/24 09:52:24;;;;;;;6.35;5.75;;;;;;;24.56;13.17;101023.16;1775275;80;20928;-77
2022/03/24 09:54:52;;;;;;;6.67;5.53;;;;;;;24.46;13.42;101020.67;1775357;80;20940;-78
2022/03/24 09:57:20;;;;;;;8.03;5.30;;;;;;;24.47;13.46;101012.94;1775221;80;20908;-78
2022/03/24 09:59:48;;;;;;;8.98;5.37;;;;;;;24.50;12.94;101016.66;1775328;80;21281;-75
2022/03/24 10:02:16;;;;;;;9.25;6.78;;;;;;;24.32;13.11;101018.20;1775720;80;21593;-77
2022/03/24 10:04:52;;;;;;;12.00;6.62;;;;;;;24.27;13.28;101005.80;1775132;80;20963;-77
2022/03/24 10:07:25;;;;;;;9.33;5.47;;;;;;;24.32;13.25;101007.97;1775306;80;20943;-78
2022/03/24 10:10:03;;;;;;;8.50;5.33;;;;;;;24.28;13.25;101012.86;1775227;80;21469;-79
2022/03/24 10:12:26;;;;;;;11.30;6.92;;;;;;;24.19;13.30;101001.83;1772935;80;20936;-78
2022/03/24 10:15:08;;;;;;;12.50;6.58;;;;;;;24.18;13.25;101012.20;1775581;80;20948;-79
2022/03/24 10:17:36;;;;;;;9.90;6.03;;;;;;;24.05;13.59;101003.34;1775323;80;21331;-76
2022/03/24 10:20:08;;;;;;;8.48;6.45;;;;;;;23.97;13.13;100995.34;1775270;80;20995;-77
2022/03/24 10:22:36;;;;;;;10.07;5.50;;;;;;;23.94;13.43;100992.48;1775818;80;20924;-78
2022/03/24 10:25:19;;;;;;;10.20;6.67;;;;;;;24.10;13.90;100989.43;1775277;80;20960;-77
2022/03/24 10:27:53;;;;;;;10.95;6.00;;;;;;;24.29;13.25;100981.52;1755940;80;21147;-76
2022/03/24 10:30:21;;;;;;;13.00;5.70;;;;;;;24.26;13.34;100983.22;1774077;80;20935;-75
2022/03/24 10:32:56;;;;;;;11.22;6.03;;;;;;;24.16;13.37;100979.37;1753314;80;20935;-76
2022/03/24 10:35:26;;;;;;;7.95;5.95;;;;;;;24.15;13.36;100968.34;1775167;80;20932;-76
2022/03/24 10:37:53;;;;;;;12.05;5.87;;;;;;;24.06;13.29;100972.88;1775506;80;21516;-76
2022/03/24 10:40:21;;;;;;;10.43;5.12;;;;;;;23.99;13.45;100977.27;1775210;80;21215;-77
2022/03/24 10:42:49;;;;;;;7.95;4.62;;;;;;;23.92;13.49;100969.07;1775294;80;20932;-78
2022/03/24 10:45:22;;;;;;;8.63;4.97;;;;;;;24.12;13.82;100961.96;1775255;80;21445;-76
2022/03/24 10:47:55;;;;;;;;;;;;;;;24.33;13.14;100954.70;1776834;80;21367;-77
2022/03/24 10:50:33;;;;;;;9.25;5.10;;;;;;;24.34;13.38;100952.34;1775395;80;20129;-76
2022/03/24 10:53:19;;;;;;;8.55;4.50;;;;;;;24.45;13.53;100949.27;1775258;80;21236;-76
2022/03/24 10:56:13;;;;;;;12.60;6.00;;;;;;;24.66;13.19;100941.17;1775270;80;20948;-76
2022/03/24 10:58:44;;;;;;;8.58;4.92;;;;;;;24.78;12.89;100939.73;1775451;80;21354;-76
2022/03/24 11:01:15;;;;;;;7.58;4.55;;;;;;;24.70;12.96;100940.64;1753484;80;20968;-78
2022/03/24 11:03:44;;;;;;;7.50;4.28;;;;;;;24.55;12.85;100935.70;1775265;80;20971;-74
2022/03/24 11:06:14;;;;;;;9.63;4.83;;;;;;;24.48;13.58;100931.54;1775811;80;21174;-75
2022/03/24 11:08:43;;;;;;;5.28;3.95;;;;;;;24.55;12.79;100924.97;1776345;80;20967;-75
2022/03/24 11:11:14;;;;;;;7.50;4.20;;;;;;;24.45;12.65;100925.65;1775816;80;20931;-75
2022/03/24 11:13:55;;;;;;;8.08;5.03;;;;;;;24.36;12.64;100919.48;1775438;80;21011;-76
2022/03/24 11:16:27;;;;;;;12.05;6.17;;;;;;;24.25;12.95;100914.00;1775446;80;20869;-76
2022/03/24 11:18:57;;;;;;;10.85;4.83;;;;;;;24.04;13.62;100915.12;1783761;80;21015;-75
2022/03/24 11:21:30;;;;;;;14.07;10.13;;;;;;;23.96;12.89;100908.76;1783745;80;20927;-75
2022/03/24 11:23:58;;;;;;;6.62;4.15;;;;;;;23.78;12.89;100911.66;1783744;80;20915;-76
2022/03/24 11:26:27;;;;;;;9.00;3.72;;;;;;;23.62;13.13;100909.00;1783784;80;20908;-76
2022/03/24 11:28:55;;;;;;;7.87;4.67;;;;;;;23.63;13.11;100908.48;1783705;80;20928;-77